createdAt,value
2023-08-07T00:00:57.445Z,13.10
2023-08-07T00:07:57.992Z,13.00
2023-08-07T00:14:58.485Z,13.00
2023-08-07T00:21:59.006Z,13.00
2023-08-07T00:28:59.477Z,12.90
2023-08-07T00:35:59.988Z,12.90
2023-08-07T00:43:00.504Z,12.80
2023-08-07T00:50:02.652Z,12.70
2023-08-07T00:57:13.703Z,12.60
2023-08-07T01:04:13.965Z,12.60
2023-08-07T01:11:35.711Z,12.60
2023-08-07T01:18:37.473Z,12.50
2023-08-07T01:25:39.157Z,12.40
2023-08-07T01:32:58.601Z,12.30
2023-08-07T01:40:01.357Z,12.30
2023-08-07T01:47:01.639Z,12.20
2023-08-07T01:54:02.128Z,12.20
2023-08-07T02:01:02.544Z,12.20
2023-08-07T02:08:02.988Z,12.20
2023-08-07T02:15:03.878Z,12.20
2023-08-07T02:22:04.678Z,12.30
2023-08-07T02:29:05.053Z,12.20
2023-08-07T02:36:06.640Z,12.20
2023-08-07T02:43:07.106Z,12.20
2023-08-07T02:50:07.929Z,12.10
2023-08-07T02:57:08.126Z,12.10
2023-08-07T03:04:08.718Z,12.10
2023-08-07T03:11:09.192Z,12.10
2023-08-07T03:18:09.616Z,12.10
2023-08-07T03:25:10.315Z,12.10
2023-08-07T03:32:10.935Z,12.10
2023-08-07T03:39:13.235Z,12.10
2023-08-07T03:46:14.112Z,12.10
2023-08-07T03:53:14.243Z,12.10
2023-08-07T04:00:19.809Z,12.20
2023-08-07T04:07:22.258Z,12.20
2023-08-07T04:14:22.716Z,12.20
2023-08-07T04:21:23.030Z,12.20
2023-08-07T04:28:23.428Z,12.20
2023-08-07T04:35:23.792Z,12.30
2023-08-07T04:42:24.416Z,12.30
2023-08-07T04:49:24.843Z,12.30
2023-08-07T04:56:25.405Z,12.30
2023-08-07T05:03:27.878Z,12.30
2023-08-07T05:10:28.395Z,12.40
2023-08-07T05:17:28.857Z,12.40
2023-08-07T05:24:35.379Z,12.40
2023-08-07T05:31:36.029Z,12.50
2023-08-07T05:38:36.608Z,12.50
2023-08-07T05:45:37.168Z,12.60
2023-08-07T05:52:37.680Z,12.60
2023-08-07T05:59:38.285Z,12.60
2023-08-07T06:06:40.492Z,12.60
2023-08-07T06:13:41.951Z,12.50
2023-08-07T06:20:42.109Z,12.50
2023-08-07T06:27:42.549Z,12.50
2023-08-07T06:34:43.705Z,12.40
2023-08-07T06:41:44.178Z,12.30
2023-08-07T06:48:46.584Z,12.30
2023-08-07T06:55:47.786Z,12.30
2023-08-07T07:02:48.488Z,12.30
2023-08-07T07:09:49.023Z,12.20
2023-08-07T07:16:49.646Z,12.10
2023-08-07T07:23:50.107Z,12.10
2023-08-07T07:30:51.304Z,12.00
2023-08-07T07:37:51.690Z,12.10
2023-08-07T07:44:52.420Z,12.10
2023-08-07T07:51:52.600Z,12.10
2023-08-07T07:58:53.092Z,12.20
2023-08-07T08:05:53.602Z,12.20
2023-08-07T08:12:56.760Z,12.30
2023-08-07T08:19:57.199Z,12.30
2023-08-07T08:26:57.755Z,12.40
2023-08-07T08:33:58.834Z,12.40
2023-08-07T08:41:01.898Z,12.50
2023-08-07T08:48:04.347Z,12.70
2023-08-07T08:55:05.180Z,12.70
2023-08-07T09:02:05.946Z,12.80
2023-08-07T09:09:07.170Z,12.90
2023-08-07T09:16:10.298Z,13.00
2023-08-07T09:23:10.872Z,13.00
2023-08-07T09:30:11.863Z,13.00
2023-08-07T09:37:12.380Z,13.00
2023-08-07T09:44:12.956Z,13.10
2023-08-07T09:51:13.447Z,13.40
2023-08-07T09:58:14.709Z,13.80
2023-08-07T10:05:16.134Z,14.10
2023-08-07T10:12:17.770Z,14.20
2023-08-07T10:19:18.312Z,14.50
2023-08-07T10:26:19.588Z,14.70
2023-08-07T10:33:21.254Z,15.00
2023-08-07T10:40:22.423Z,15.30
2023-08-07T10:47:35.958Z,15.60
2023-08-07T10:54:43.904Z,15.90
2023-08-07T11:01:52.533Z,16.10
2023-08-07T11:08:53.118Z,16.40
2023-08-07T11:15:53.785Z,16.90
2023-08-07T11:22:56.371Z,16.90
2023-08-07T11:29:56.670Z,17.20
2023-08-07T11:36:59.154Z,17.40
2023-08-07T11:44:00.769Z,17.60
2023-08-07T11:51:02.147Z,17.40
2023-08-07T11:58:05.669Z,17.50
2023-08-07T12:05:11.901Z,17.90
2023-08-07T12:12:12.678Z,18.30
2023-08-07T12:19:13.992Z,18.50
2023-08-07T12:26:14.236Z,18.60
2023-08-07T12:33:15.537Z,18.70
2023-08-07T12:47:24.039Z,19.10
2023-08-07T12:54:24.528Z,19.20
2023-08-07T13:01:25.046Z,19.10
2023-08-07T13:08:25.412Z,19.40
2023-08-07T13:15:26.429Z,19.70
2023-08-07T13:22:27.124Z,19.90
2023-08-07T13:29:30.624Z,20.20
2023-08-07T13:36:31.067Z,20.10
2023-08-07T13:43:31.614Z,20.20
2023-08-07T13:50:32.246Z,20.30
2023-08-07T13:57:34.293Z,20.20
2023-08-07T14:04:34.512Z,20.00
2023-08-07T14:11:35.035Z,19.90
2023-08-07T14:18:35.704Z,20.10
2023-08-07T14:25:36.544Z,20.00
2023-08-07T14:32:37.151Z,19.60
2023-08-07T14:39:37.543Z,19.20
2023-08-07T14:46:39.317Z,19.00
2023-08-07T14:53:39.477Z,19.10
2023-08-07T15:00:39.957Z,19.70
2023-08-07T15:07:40.506Z,20.00
2023-08-07T15:14:41.024Z,19.70
2023-08-07T15:21:41.475Z,19.30
2023-08-07T15:28:42.108Z,19.40
2023-08-07T15:35:42.642Z,19.70
2023-08-07T15:42:46.473Z,19.40
2023-08-07T15:49:49.265Z,19.30
2023-08-07T15:56:51.021Z,19.40
2023-08-07T16:03:52.208Z,20.00
2023-08-07T16:10:53.716Z,20.40
2023-08-07T16:17:54.153Z,20.60
2023-08-07T16:24:55.146Z,20.60
2023-08-07T16:31:57.299Z,20.20
2023-08-07T16:38:58.102Z,19.80
2023-08-07T16:45:58.918Z,19.90
2023-08-07T16:53:00.626Z,19.90
2023-08-07T17:00:01.240Z,19.50
2023-08-07T17:07:03.498Z,19.40
2023-08-07T17:14:04.522Z,19.30
2023-08-07T17:21:05.124Z,19.40
2023-08-07T17:28:06.619Z,19.30
2023-08-07T17:35:07.718Z,19.00
2023-08-07T17:42:08.800Z,18.70
2023-08-07T17:49:08.974Z,18.50
2023-08-07T17:56:09.480Z,18.30
2023-08-07T18:03:12.588Z,18.20
2023-08-07T18:10:13.149Z,18.10
2023-08-07T18:17:13.674Z,18.10
2023-08-07T18:24:13.965Z,18.20
2023-08-07T18:31:14.893Z,18.30
2023-08-07T18:38:15.115Z,18.20
2023-08-07T18:45:15.993Z,18.00
2023-08-07T18:52:16.252Z,17.80
2023-08-07T18:59:16.771Z,17.60
2023-08-07T19:06:17.517Z,17.50
2023-08-07T19:13:17.775Z,17.40
2023-08-07T19:20:18.767Z,17.30
2023-08-07T19:27:19.194Z,17.10
2023-08-07T19:34:19.638Z,16.90
2023-08-07T19:41:20.194Z,16.80
2023-08-07T19:48:20.721Z,16.70
2023-08-07T19:55:21.516Z,16.50
2023-08-07T20:02:22.294Z,16.40
2023-08-07T20:09:23.340Z,16.20
2023-08-07T20:16:23.994Z,16.10
2023-08-07T20:23:25.853Z,16.00
2023-08-07T20:30:26.589Z,16.00
2023-08-07T20:37:27.404Z,15.80
2023-08-07T20:44:28.097Z,15.70
2023-08-07T20:51:28.557Z,15.60
2023-08-07T20:58:28.878Z,15.60
2023-08-07T21:05:29.280Z,15.60
2023-08-07T21:12:29.936Z,15.50
2023-08-07T21:19:31.077Z,15.40
2023-08-07T21:26:31.351Z,15.40
2023-08-07T21:33:31.747Z,15.30
2023-08-07T21:40:32.288Z,15.30
2023-08-07T21:47:32.813Z,15.30
2023-08-07T21:54:33.319Z,15.30
2023-08-07T22:01:33.944Z,15.30
2023-08-07T22:08:34.397Z,15.30
2023-08-07T22:15:34.871Z,15.20
2023-08-07T22:22:35.361Z,15.20
2023-08-07T22:29:36.219Z,15.20
2023-08-07T22:36:36.601Z,15.20
2023-08-07T22:43:37.158Z,15.10
2023-08-07T22:50:37.586Z,15.10
2023-08-07T22:57:38.051Z,15.10
2023-08-07T23:04:38.489Z,15.00
2023-08-07T23:11:39.404Z,15.00
2023-08-07T23:18:39.842Z,15.00
2023-08-07T23:25:40.356Z,15.00
2023-08-07T23:32:42.148Z,15.00
2023-08-07T23:39:42.543Z,15.00
2023-08-07T23:46:42.992Z,15.00
2023-08-07T23:53:43.340Z,15.00
